Time;durP1;ratioP1;P1;durP2;ratioP2;P2;SDS_P1;SDS_P2;PMS_P1;PMS_P2;Temp;Humidity;BMP_temperature;BMP_pressure;BME280_temperature;BME280_humidity;BME280_pressure;Samples;Min_cycle;Max_cycle;Signal;HPM_P1;HPM_P2
2022/04/19 00:00:51;;;;;;;12.15;8.65;;;8.30;95.90;;;;;;5028382;28;20095;-90
2022/04/19 00:03:17;;;;;;;14.20;8.98;;;8.30;96.50;;;;;;5018529;28;20116;-90
2022/04/19 00:05:44;;;;;;;12.43;8.40;;;8.30;97.10;;;;;;5018194;28;20085;-91
2022/04/19 00:08:11;;;;;;;15.93;9.98;;;8.30;97.60;;;;;;5012373;28;20029;-90
2022/04/19 00:10:37;;;;;;;12.52;8.77;;;8.30;98.10;;;;;;5018251;28;20449;-90
2022/04/19 00:13:04;;;;;;;13.57;9.35;;;8.30;98.50;;;;;;5016129;28;20044;-90
2022/04/19 00:15:30;;;;;;;16.00;9.05;;;8.20;98.90;;;;;;5009915;28;20029;-90
2022/04/19 00:17:57;;;;;;;13.15;8.73;;;8.20;99.10;;;;;;5017977;28;20017;-90
2022/04/19 00:20:24;;;;;;;14.15;8.70;;;8.20;99.60;;;;;;5017502;28;20481;-90
2022/04/19 00:22:50;;;;;;;15.45;8.88;;;8.20;99.80;;;;;;5021208;28;20124;-90
2022/04/19 00:25:16;;;;;;;12.98;9.10;;;8.20;99.90;;;;;;5017898;28;20065;-90
2022/04/19 00:27:42;;;;;;;10.95;8.35;;;8.20;99.90;;;;;;5020562;28;20021;-90
2022/04/19 00:30:08;;;;;;;16.73;10.68;;;8.20;99.90;;;;;;5012213;28;20033;-90
2022/04/19 00:32:35;;;;;;;12.73;9.15;;;8.20;99.90;;;;;;5011425;28;20112;-90
2022/04/19 00:35:04;;;;;;;13.65;9.23;;;8.20;99.90;;;;;;5017530;28;20398;-90
2022/04/19 00:37:30;;;;;;;12.45;9.40;;;8.20;99.90;;;;;;5017335;28;20026;-90
2022/04/19 00:39:58;;;;;;;16.67;10.10;;;8.20;99.90;;;;;;5016980;28;20437;-90
2022/04/19 00:42:28;;;;;;;17.40;9.07;;;8.10;99.90;;;;;;5010098;28;20029;-90
2022/04/19 00:44:59;;;;;;;17.52;10.18;;;8.10;99.90;;;;;;5009834;28;20035;-90
2022/04/19 00:47:25;;;;;;;13.32;8.60;;;8.00;99.90;;;;;;5021579;28;20105;-90
2022/04/19 00:49:51;;;;;;;15.98;10.43;;;8.00;99.90;;;;;;5016199;28;20413;-90
2022/04/19 00:52:17;;;;;;;16.33;10.20;;;7.90;99.90;;;;;;5014003;28;20113;-89
2022/04/19 00:54:43;;;;;;;15.45;9.43;;;7.90;99.90;;;;;;5005047;28;20033;-90
2022/04/19 00:57:10;;;;;;;14.88;10.63;;;7.90;99.90;;;;;;5017469;28;20049;-90
2022/04/19 00:59:36;;;;;;;14.70;9.63;;;7.90;99.90;;;;;;5017632;28;20033;-90
2022/04/19 01:02:03;;;;;;;14.10;10.25;;;7.90;99.90;;;;;;5015910;28;20033;-90
2022/04/19 01:04:29;;;;;;;15.57;9.98;;;7.90;99.90;;;;;;5016318;28;20041;-89
2022/04/19 01:06:55;;;;;;;14.63;9.93;;;7.90;99.90;;;;;;5001215;28;20037;-90
2022/04/19 01:09:22;;;;;;;15.30;10.38;;;7.90;99.90;;;;;;5014531;28;20025;-90
2022/04/19 01:14:35;;;;;;;14.48;9.65;;;7.90;99.90;;;;;;5030058;28;20412;-90
2022/04/19 01:17:00;;;;;;;17.17;10.13;;;7.80;99.90;;;;;;5010614;28;20160;-90
2022/04/19 01:19:26;;;;;;;14.73;10.38;;;7.80;99.90;;;;;;5010300;28;20041;-90
2022/04/19 01:21:57;;;;;;;14.07;9.85;;;7.70;99.90;;;;;;5009583;28;20034;-90
2022/04/19 01:24:23;;;;;;;18.00;11.60;;;7.70;99.90;;;;;;5022404;28;20025;-90
2022/04/19 01:26:52;;;;;;;19.10;11.45;;;7.70;99.90;;;;;;5021325;28;20025;-90
2022/04/19 01:29:18;;;;;;;16.98;11.07;;;7.70;99.90;;;;;;5032128;28;20014;-91
2022/04/19 01:31:45;;;;;;;15.10;9.93;;;7.60;99.90;;;;;;5021726;28;20029;-90
2022/04/19 01:34:11;;;;;;;15.75;10.95;;;7.60;99.90;;;;;;5016733;28;20030;-90
2022/04/19 01:36:37;;;;;;;15.90;10.98;;;7.60;99.90;;;;;;5005586;28;20588;-91
2022/04/19 01:39:08;;;;;;;16.45;11.00;;;7.60;99.90;;;;;;5013441;28;20424;-90
2022/04/19 01:41:34;;;;;;;13.00;8.95;;;7.60;99.90;;;;;;5015771;28;20099;-90
2022/04/19 01:44:00;;;;;;;16.38;11.40;;;7.70;99.90;;;;;;5016272;28;20477;-89
2022/04/19 01:46:26;;;;;;;17.17;10.75;;;7.80;99.90;;;;;;5001917;28;20041;-90
2022/04/19 01:48:54;;;;;;;14.18;10.05;;;7.90;99.90;;;;;;5007516;28;20025;-90
2022/04/19 01:51:24;;;;;;;13.85;9.68;;;8.00;99.90;;;;;;5013254;28;20033;-89
2022/04/19 01:53:50;;;;;;;15.35;10.30;;;8.00;99.90;;;;;;5017723;28;20032;-90
2022/04/19 01:56:16;;;;;;;14.02;10.02;;;8.00;99.90;;;;;;5010967;28;20108;-90
2022/04/19 01:58:42;;;;;;;14.30;10.52;;;8.10;99.90;;;;;;5014065;28;20060;-90
2022/04/19 02:01:08;;;;;;;14.73;10.05;;;8.10;99.90;;;;;;5016372;28;20025;-91
2022/04/19 02:03:34;;;;;;;16.15;11.13;;;8.00;99.90;;;;;;5015761;28;20076;-90
2022/04/19 02:06:00;;;;;;;15.25;9.65;;;7.90;99.90;;;;;;5022331;28;20044;-89
2022/04/19 02:08:27;;;;;;;14.55;10.45;;;7.90;99.90;;;;;;5015342;28;20124;-90
2022/04/19 02:10:52;;;;;;;17.92;11.23;;;7.80;99.90;;;;;;5007704;28;20056;-90
2022/04/19 02:13:19;;;;;;;14.60;10.40;;;7.70;99.90;;;;;;5014687;28;20116;-90
2022/04/19 02:15:46;;;;;;;18.55;11.15;;;7.70;99.90;;;;;;5015633;28;20037;-90
2022/04/19 02:18:11;;;;;;;14.90;10.10;;;7.70;99.90;;;;;;5019693;28;20031;-90
2022/04/19 02:20:37;;;;;;;18.15;10.25;;;7.70;99.90;;;;;;5005794;28;20034;-90
2022/04/19 02:23:03;;;;;;;13.65;8.90;;;7.70;99.90;;;;;;5024353;28;20055;-90
2022/04/19 02:25:29;;;;;;;16.80;10.27;;;7.60;99.90;;;;;;5000000;28;20398;-90
2022/04/19 02:27:55;;;;;;;13.48;9.20;;;7.60;99.90;;;;;;5010503;28;20025;-90
2022/04/19 02:30:21;;;;;;;13.70;9.27;;;7.60;99.90;;;;;;5016444;28;20028;-90
2022/04/19 02:32:48;;;;;;;15.50;9.95;;;7.60;99.90;;;;;;5013125;28;20115;-91
2022/04/19 02:35:20;;;;;;;13.48;8.60;;;7.60;99.90;;;;;;5013076;28;20048;-90
2022/04/19 02:37:50;;;;;;;14.43;9.45;;;7.60;99.90;;;;;;5015431;28;20037;-89
2022/04/19 02:40:19;;;;;;;14.52;9.27;;;7.60;99.90;;;;;;5008597;28;20478;-89
2022/04/19 02:42:45;;;;;;;14.52;8.57;;;7.70;99.90;;;;;;5002893;28;20115;-90
2022/04/19 02:45:12;;;;;;;15.10;9.07;;;7.80;99.90;;;;;;5000111;28;20026;-91
2022/04/19 02:47:38;;;;;;;13.80;9.07;;;7.80;99.90;;;;;;5001942;28;20029;-90
2022/04/19 02:50:05;;;;;;;13.05;9.18;;;7.80;99.90;;;;;;5016230;28;20030;-91
2022/04/19 02:52:31;;;;;;;14.40;8.65;;;7.80;99.90;;;;;;5014290;28;20021;-90
2022/04/19 02:54:56;;;;;;;11.75;8.23;;;7.80;99.90;;;;;;5012416;28;20075;-91
2022/04/19 02:57:22;;;;;;;11.27;8.05;;;7.70;99.90;;;;;;5017590;28;20120;-90
2022/04/19 02:59:48;;;;;;;13.00;8.88;;;7.70;99.90;;;;;;5012358;28;20469;-90
2022/04/19 03:02:14;;;;;;;13.20;9.18;;;7.70;99.90;;;;;;4997552;28;20044;-91
2022/04/19 03:04:40;;;;;;;13.73;8.48;;;7.70;99.90;;;;;;5012431;28;20045;-91
2022/04/19 03:07:05;;;;;;;13.18;7.70;;;7.70;99.90;;;;;;5021461;28;20029;-90
2022/04/19 03:09:31;;;;;;;13.77;8.35;;;7.70;99.90;;;;;;5001899;28;20123;-91
2022/04/19 03:11:57;;;;;;;14.43;8.32;;;7.70;99.90;;;;;;5001120;28;20022;-91
2022/04/19 03:14:23;;;;;;;15.10;8.65;;;7.60;99.90;;;;;;5007419;28;20030;-90
2022/04/19 03:16:49;;;;;;;13.52;9.00;;;7.60;99.90;;;;;;5015124;28;20018;-91
2022/04/19 03:19:14;;;;;;;15.30;9.80;;;7.50;99.90;;;;;;5016195;28;20074;-90
2022/04/19 03:21:40;;;;;;;13.57;8.48;;;7.40;99.90;;;;;;5011782;28;20132;-91
2022/04/19 03:29:35;;;;;;;13.55;9.55;;;7.10;99.90;;;;;;5037261;28;20033;-90
2022/04/19 03:32:00;;;;;;;15.50;8.65;;;7.00;99.90;;;;;;5007488;28;20030;-90
2022/04/19 03:34:26;;;;;;;16.92;9.63;;;6.90;99.90;;;;;;5016890;28;20026;-89
2022/04/19 03:36:52;;;;;;;14.60;8.90;;;6.90;99.90;;;;;;5017928;28;20037;-90
2022/04/19 03:39:18;;;;;;;15.27;9.05;;;6.80;99.90;;;;;;5014828;28;20030;-90
2022/04/19 03:41:44;;;;;;;18.50;10.18;;;6.80;99.90;;;;;;5014560;28;20045;-90
2022/04/19 03:44:11;;;;;;;14.60;9.18;;;6.70;99.90;;;;;;5012695;28;20033;-90
2022/04/19 03:47:07;;;;;;;15.45;9.77;;;6.60;99.90;;;;;;5009467;28;20030;-90
2022/04/19 03:49:24;;;;;;;14.75;9.80;;;6.60;99.90;;;;;;5035325;28;20031;-89
2022/04/19 03:51:49;;;;;;;14.25;9.45;;;6.60;99.90;;;;;;5021162;28;20120;-90
2022/04/19 03:54:15;;;;;;;15.75;9.00;;;6.50;99.90;;;;;;5009524;28;20125;-90
2022/04/19 03:56:41;;;;;;;15.75;8.95;;;6.50;99.90;;;;;;5018365;28;20026;-90
2022/04/19 03:59:09;;;;;;;14.32;8.55;;;6.70;99.90;;;;;;5013021;28;20056;-90
2022/04/19 04:01:37;;;;;;;16.40;8.75;;;6.70;99.90;;;;;;5016799;28;20128;-90
2022/04/19 04:04:03;;;;;;;11.40;7.47;;;6.90;99.90;;;;;;5005573;28;20034;-91
2022/04/19 04:06:28;;;;;;;14.55;9.20;;;6.90;99.90;;;;;;5008725;28;20060;-90
2022/04/19 04:08:54;;;;;;;14.23;7.80;;;7.00;99.90;;;;;;5017651;28;20036;-90
2022/04/19 04:11:20;;;;;;;12.50;8.15;;;7.10;99.90;;;;;;5008250;28;20033;-89
2022/04/19 04:13:45;;;;;;;14.00;8.10;;;7.10;99.90;;;;;;5011254;28;20018;-89
2022/04/19 04:16:11;;;;;;;15.30;8.98;;;7.20;99.90;;;;;;5015727;28;20386;-90
2022/04/19 04:18:39;;;;;;;16.92;8.80;;;7.20;99.90;;;;;;5007777;28;20111;-90
2022/04/19 04:21:05;;;;;;;13.55;8.48;;;7.30;99.90;;;;;;5004584;28;20124;-89
2022/04/19 04:23:33;;;;;;;14.25;8.20;;;7.30;99.90;;;;;;5010560;28;20109;-90
2022/04/19 04:25:59;;;;;;;14.63;8.63;;;7.30;99.90;;;;;;5021284;28;20533;-89
2022/04/19 04:28:25;;;;;;;16.10;8.63;;;7.30;99.90;;;;;;5012756;28;20050;-90
2022/04/19 04:30:50;;;;;;;15.25;8.60;;;7.40;99.90;;;;;;5019866;28;20045;-90
2022/04/19 04:33:16;;;;;;;14.55;8.07;;;7.50;99.90;;;;;;5006649;28;20096;-90
2022/04/19 04:35:42;;;;;;;13.93;8.05;;;7.50;99.90;;;;;;5011823;28;20049;-89
2022/04/19 04:38:07;;;;;;;12.52;8.20;;;7.50;99.90;;;;;;5013277;28;20024;-90
2022/04/19 04:40:33;;;;;;;14.35;7.88;;;7.50;99.90;;;;;;5015778;28;20029;-89
2022/04/19 04:42:59;;;;;;;13.13;8.00;;;7.60;99.90;;;;;;5019841;28;20041;-89
2022/04/19 04:45:26;;;;;;;13.82;7.63;;;7.60;99.90;;;;;;5007100;28;20112;-90
2022/04/19 04:50:36;;;;;;;13.60;8.68;;;7.50;99.90;;;;;;5034659;28;20091;-90
2022/04/19 04:53:02;;;;;;;14.70;8.75;;;7.60;99.90;;;;;;5013802;28;20401;-90
2022/04/19 04:55:28;;;;;;;13.88;8.43;;;7.60;99.90;;;;;;5016438;28;20049;-90
2022/04/19 04:57:57;;;;;;;14.82;8.48;;;7.50;99.90;;;;;;5016455;28;20018;-90
2022/04/19 05:00:25;;;;;;;14.50;7.93;;;7.50;99.90;;;;;;5008130;28;20029;-89
2022/04/19 05:02:51;;;;;;;12.55;7.50;;;7.50;99.90;;;;;;5017049;28;20033;-89
2022/04/19 05:05:17;;;;;;;14.38;7.95;;;7.60;99.90;;;;;;5031577;28;20049;-90
2022/04/19 05:07:43;;;;;;;15.98;8.32;;;7.60;99.90;;;;;;5018490;28;20025;-90
2022/04/19 05:10:09;;;;;;;12.73;7.78;;;7.60;99.90;;;;;;5026385;28;20505;-90
2022/04/19 05:12:35;;;;;;;14.77;8.60;;;7.60;99.90;;;;;;5015287;28;20556;-90
2022/04/19 05:15:01;;;;;;;14.15;7.78;;;7.60;99.90;;;;;;5014234;28;20045;-90
2022/04/19 05:17:27;;;;;;;15.23;8.48;;;7.60;99.90;;;;;;5016492;28;20095;-90
2022/04/19 05:19:56;;;;;;;15.15;8.38;;;7.60;99.90;;;;;;5030315;28;20045;-91
2022/04/19 05:22:22;;;;;;;13.90;8.30;;;7.70;99.90;;;;;;5030721;28;20037;-90
2022/04/19 05:24:48;;;;;;;12.65;7.80;;;7.70;99.90;;;;;;5014930;28;20024;-90
2022/04/19 05:27:13;;;;;;;15.07;8.27;;;7.80;99.90;;;;;;5010433;28;20038;-91
2022/04/19 05:29:39;;;;;;;12.43;7.80;;;7.80;99.90;;;;;;5004975;28;20022;-91
2022/04/19 05:32:05;;;;;;;17.23;8.25;;;7.90;99.90;;;;;;5008693;28;20032;-92
2022/04/19 05:34:31;;;;;;;13.15;7.97;;;7.90;99.90;;;;;;5004955;28;20493;-91
2022/04/19 05:36:57;;;;;;;15.02;8.88;;;8.00;99.90;;;;;;5006882;28;20033;-91
2022/04/19 05:39:22;;;;;;;13.20;8.27;;;8.10;99.90;;;;;;5008550;28;20029;-90
2022/04/19 05:41:48;;;;;;;16.25;8.30;;;8.10;99.90;;;;;;5014750;28;20069;-90
2022/04/19 05:44:14;;;;;;;13.82;8.10;;;8.20;99.90;;;;;;5016609;28;20025;-91
2022/04/19 05:46:39;;;;;;;13.55;8.25;;;8.30;99.90;;;;;;5001058;28;20040;-92
2022/04/19 05:49:05;;;;;;;12.18;7.50;;;8.30;99.80;;;;;;5011004;28;20022;-86
2022/04/19 05:51:32;;;;;;;14.98;8.98;;;8.40;99.80;;;;;;5015834;28;20071;-86
2022/04/19 05:53:58;;;;;;;16.38;9.13;;;8.50;99.80;;;;;;5007765;28;20026;-86
2022/04/19 05:56:23;;;;;;;16.02;8.52;;;8.60;99.70;;;;;;5016087;28;20021;-89
2022/04/19 05:58:49;;;;;;;17.45;8.63;;;8.70;99.60;;;;;;5012152;28;20669;-91
2022/04/19 06:01:15;;;;;;;13.50;8.38;;;8.80;99.60;;;;;;5000504;28;20092;-91
2022/04/19 06:06:25;;;;;;;17.88;9.02;;;9.00;99.40;;;;;;5032336;28;20041;-90
2022/04/19 06:08:50;;;;;;;15.32;8.93;;;9.20;99.30;;;;;;5005329;28;20041;-92
2022/04/19 06:11:16;;;;;;;18.23;9.43;;;9.30;99.20;;;;;;5011117;28;20048;-91
2022/04/19 06:13:42;;;;;;;17.10;9.20;;;9.40;99.00;;;;;;5015504;28;20132;-90
2022/04/19 06:16:08;;;;;;;14.90;8.90;;;9.50;98.90;;;;;;5016564;28;20112;-90
2022/04/19 06:18:34;;;;;;;12.77;7.75;;;9.70;98.70;;;;;;5020068;28;20029;-90
2022/04/19 06:21:01;;;;;;;14.30;8.35;;;9.80;98.50;;;;;;4998751;28;20042;-91
2022/04/19 06:23:27;;;;;;;16.95;9.15;;;9.90;98.30;;;;;;5015763;28;20133;-91
2022/04/19 06:25:52;;;;;;;14.73;8.68;;;10.00;98.00;;;;;;5016957;28;20029;-90
2022/04/19 06:28:18;;;;;;;13.57;8.70;;;10.10;97.90;;;;;;5017530;28;20037;-90
2022/04/19 06:30:44;;;;;;;19.67;9.35;;;10.30;98.10;;;;;;5013791;28;20022;-90
2022/04/19 06:33:10;;;;;;;14.02;8.57;;;10.30;97.60;;;;;;5002718;28;20033;-89
2022/04/19 06:35:35;;;;;;;16.67;8.65;;;10.50;97.50;;;;;;5011453;28;20021;-86
2022/04/19 06:38:02;;;;;;;15.32;9.15;;;10.70;97.20;;;;;;5003743;28;20032;-89
2022/04/19 06:40:27;;;;;;;18.33;9.38;;;10.80;96.80;;;;;;5022887;28;20028;-88
2022/04/19 06:42:57;;;;;;;20.65;9.35;;;11.00;96.50;;;;;;5007679;28;20037;-87
2022/04/19 06:45:23;;;;;;;17.58;9.05;;;11.10;95.90;;;;;;5010856;28;20072;-90
2022/04/19 06:47:58;;;;;;;17.75;8.65;;;11.30;95.60;;;;;;4998696;28;20025;-90
2022/04/19 06:50:24;;;;;;;15.65;8.77;;;11.40;95.00;;;;;;5004247;28;20034;-89
2022/04/19 06:52:51;;;;;;;15.32;9.15;;;11.60;94.20;;;;;;5011465;28;20033;-90
2022/04/19 06:55:17;;;;;;;16.38;8.80;;;11.70;93.70;;;;;;5002629;28;20486;-89
2022/04/19 06:57:43;;;;;;;14.57;8.98;;;11.90;93.60;;;;;;5018202;28;20026;-89
2022/04/19 07:00:09;;;;;;;14.38;8.52;;;12.00;93.50;;;;;;5019315;28;20021;-90
2022/04/19 07:02:34;;;;;;;15.27;8.20;;;12.10;93.20;;;;;;5024794;28;20044;-89
2022/04/19 07:05:00;;;;;;;16.00;8.50;;;12.20;92.80;;;;;;5012998;28;20103;-89
2022/04/19 07:07:26;;;;;;;19.00;9.02;;;12.40;92.50;;;;;;5005424;28;20040;-89
2022/04/19 07:09:51;;;;;;;15.57;10.00;;;12.50;92.00;;;;;;5019290;28;20025;-89
2022/04/19 07:12:19;;;;;;;15.82;8.68;;;12.60;91.50;;;;;;5019620;28;20028;-89
2022/04/19 07:14:44;;;;;;;14.07;8.52;;;12.70;91.30;;;;;;5000683;28;20018;-89
2022/04/19 07:17:10;;;;;;;14.43;8.50;;;12.90;91.30;;;;;;5004580;28;20060;-89
2022/04/19 07:27:48;;;;;;;21.48;8.13;;;13.30;89.20;;;;;;5028916;28;20045;-90
2022/04/19 07:30:16;;;;;;;14.00;8.15;;;13.40;87.80;;;;;;5020549;28;20033;-90
2022/04/19 07:32:42;;;;;;;14.02;7.43;;;13.50;87.20;;;;;;5020494;28;20018;-89
2022/04/19 07:35:08;;;;;;;16.27;8.43;;;13.60;86.30;;;;;;5015665;28;20033;-88
2022/04/19 07:37:34;;;;;;;14.50;7.88;;;13.70;85.90;;;;;;5018182;28;20539;-89
2022/04/19 07:39:59;;;;;;;13.57;7.60;;;13.80;84.90;;;;;;5011717;28;20080;-90
2022/04/19 07:42:25;;;;;;;12.27;7.22;;;13.90;85.00;;;;;;5021784;28;20042;-89
2022/04/19 07:44:50;;;;;;;13.48;7.38;;;14.00;84.40;;;;;;5027474;28;20074;-89
2022/04/19 07:47:17;;;;;;;13.60;7.93;;;14.10;83.20;;;;;;5018693;28;20030;-91
2022/04/19 07:49:43;;;;;;;15.40;7.95;;;14.20;80.70;;;;;;5020952;28;20025;-85
2022/04/19 07:52:09;;;;;;;16.27;9.48;;;14.20;79.70;;;;;;5007844;28;20026;-90
2022/04/19 07:54:36;;;;;;;14.45;8.25;;;14.20;78.80;;;;;;5011141;28;20022;-90
2022/04/19 07:57:01;;;;;;;15.02;8.13;;;14.20;79.00;;;;;;5016098;28;20497;-90
2022/04/19 07:59:27;;;;;;;17.52;8.45;;;14.20;78.70;;;;;;5015861;28;20083;-91
2022/04/19 08:01:52;;;;;;;16.27;8.25;;;14.30;78.30;;;;;;5015428;28;20034;-90
2022/04/19 08:04:20;;;;;;;12.70;7.30;;;14.30;77.90;;;;;;5014735;28;20045;-91
2022/04/19 08:06:46;;;;;;;17.70;9.27;;;14.30;77.00;;;;;;5026211;28;20077;-91
2022/04/19 08:09:11;;;;;;;14.20;7.97;;;14.40;76.40;;;;;;5015395;28;20022;-91
2022/04/19 08:11:37;;;;;;;13.27;7.97;;;14.40;76.80;;;;;;5011893;28;20045;-92
2022/04/19 08:14:03;;;;;;;14.57;7.45;;;14.60;76.90;;;;;;5005080;28;20482;-92
2022/04/19 08:16:28;;;;;;;15.40;7.22;;;14.70;75.90;;;;;;5009711;28;20486;-91
2022/04/19 08:18:54;;;;;;;12.70;7.30;;;14.90;75.00;;;;;;5012517;28;20044;-90
2022/04/19 08:21:20;;;;;;;13.35;7.40;;;14.90;74.40;;;;;;5005143;28;20052;-90
2022/04/19 08:23:45;;;;;;;15.15;7.35;;;15.00;74.60;;;;;;5014863;28;20032;-90
2022/04/19 08:26:11;;;;;;;13.60;8.40;;;15.10;74.10;;;;;;5009733;28;20037;-91
2022/04/19 08:28:36;;;;;;;13.23;6.30;;;15.20;72.70;;;;;;5023972;28;20047;-91
2022/04/19 08:31:02;;;;;;;13.75;7.13;;;15.20;73.00;;;;;;5010129;28;20453;-91
2022/04/19 08:33:28;;;;;;;10.23;6.03;;;15.30;72.50;;;;;;5009112;28;20079;-91
2022/04/19 08:35:53;;;;;;;11.60;6.50;;;15.30;71.70;;;;;;5015363;28;20055;-91
2022/04/19 08:38:19;;;;;;;11.60;6.60;;;15.50;72.20;;;;;;5021131;28;20027;-91
2022/04/19 08:40:44;;;;;;;13.43;6.32;;;15.60;72.20;;;;;;5015928;28;20398;-91
2022/04/19 08:43:11;;;;;;;11.95;6.88;;;15.70;71.10;;;;;;5017024;28;20017;-91
2022/04/19 08:45:37;;;;;;;12.07;6.40;;;15.70;70.80;;;;;;5015221;28;20029;-91
2022/04/19 08:48:07;;;;;;;12.60;6.40;;;15.70;68.10;;;;;;5018043;28;20021;-92
2022/04/19 08:50:32;;;;;;;14.20;6.68;;;15.70;67.80;;;;;;5018560;28;20040;-91
2022/04/19 08:58:28;;;;;;;11.23;5.80;;;15.70;67.30;;;;;;5038380;28;20072;-91
2022/04/19 09:00:54;;;;;;;12.55;6.25;;;15.90;67.60;;;;;;5018748;28;20054;-91
2022/04/19 09:03:20;;;;;;;15.18;7.05;;;15.90;66.60;;;;;;5017442;28;20030;-90
2022/04/19 09:05:52;;;;;;;10.63;5.55;;;16.00;66.50;;;;;;5006513;28;20053;-90
2022/04/19 09:08:18;;;;;;;;;;;16.00;66.90;;;;;;5017756;28;20120;-91
2022/04/19 09:10:44;;;;;;;10.73;5.95;;;16.10;66.80;;;;;;5013782;28;19953;-91
2022/04/19 09:13:22;;;;;;;10.15;6.00;;;16.10;65.50;;;;;;5014078;28;20116;-91
2022/04/19 09:15:48;;;;;;;10.25;5.88;;;16.10;65.60;;;;;;5003625;28;20025;-91
2022/04/19 09:18:29;;;;;;;10.68;4.53;;;16.10;64.60;;;;;;5008316;28;20546;-92
2022/04/19 09:20:59;;;;;;;9.07;3.85;;;16.10;65.00;;;;;;5013901;28;20405;-85
2022/04/19 09:23:25;;;;;;;10.57;4.72;;;16.20;65.40;;;;;;5029531;28;20030;-92
2022/04/19 09:25:56;;;;;;;8.57;4.63;;;16.20;63.90;;;;;;5017180;28;20490;-90
2022/04/19 09:28:24;;;;;;;8.02;4.65;;;16.30;63.30;;;;;;5021822;28;20481;-92
2022/04/19 09:30:51;;;;;;;11.60;5.53;;;16.30;63.40;;;;;;5022882;28;20033;-92
2022/04/19 09:33:19;;;;;;;7.68;3.70;;;16.30;62.20;;;;;;5017414;28;20022;-90
2022/04/19 09:35:59;;;;;;;8.80;4.65;;;16.40;63.20;;;;;;5014786;28;20026;-91
2022/04/19 09:38:43;;;;;;;9.00;5.25;;;16.50;61.80;;;;;;5023548;28;20026;-91
2022/04/19 09:41:15;;;;;;;8.32;3.85;;;16.60;61.50;;;;;;5004409;28;20489;-91
2022/04/19 09:43:40;;;;;;;7.90;4.13;;;16.60;62.20;;;;;;5009703;28;20114;-91
2022/04/19 09:46:07;;;;;;;10.30;4.60;;;16.80;61.50;;;;;;5016249;28;20067;-90
2022/04/19 09:48:45;;;;;;;9.10;4.53;;;16.80;60.10;;;;;;5016750;28;20540;-90
2022/04/19 09:51:12;;;;;;;11.88;4.88;;;16.80;60.20;;;;;;5016789;28;20032;-91
2022/04/19 09:53:48;;;;;;;7.93;4.10;;;16.90;60.80;;;;;;5013953;28;20493;-92
2022/04/19 09:56:16;;;;;;;8.80;3.97;;;17.00;60.70;;;;;;5016159;28;20041;-91
2022/04/19 09:58:44;;;;;;;9.88;4.28;;;17.00;60.10;;;;;;5016360;28;20021;-90
2022/04/19 10:08:10;;;;;;;8.18;3.97;;;17.10;60.70;;;;;;5016670;28;20493;-91
2022/04/19 10:09:31;;;;;;;6.80;3.38;;;17.50;60.20;;;;;;5023639;28;20057;-90
2022/04/19 10:11:57;;;;;;;5.93;2.60;;;17.60;59.20;;;;;;5014052;28;20108;-90
2022/04/19 10:14:23;;;;;;;6.78;2.70;;;17.60;59.20;;;;;;5012012;28;20030;-91
2022/04/19 10:16:49;;;;;;;5.88;2.90;;;17.60;58.90;;;;;;5014490;28;20079;-91
2022/04/19 10:19:16;;;;;;;9.73;3.47;;;17.60;58.30;;;;;;5015286;28;20036;-90
2022/04/19 10:21:43;;;;;;;8.65;3.33;;;17.60;58.00;;;;;;5020521;28;20034;-90
2022/04/19 10:24:17;;;;;;;6.15;2.88;;;17.70;57.70;;;;;;5008592;28;20041;-90
2022/04/19 10:26:46;;;;;;;7.15;3.10;;;17.70;57.00;;;;;;5034832;28;20044;-91
2022/04/19 10:29:20;;;;;;;6.43;2.83;;;17.80;56.60;;;;;;5023463;28;20028;-90
2022/04/19 10:32:07;;;;;;;7.70;2.60;;;17.70;56.10;;;;;;5037047;28;20025;-89
2022/04/19 10:34:35;;;;;;;5.70;2.67;;;17.80;57.00;;;;;;5037304;28;20033;-90
2022/04/19 10:37:26;;;;;;;6.97;2.88;;;17.90;56.90;;;;;;5010398;28;20025;-90
2022/04/19 10:39:58;;;;;;;6.93;3.10;;;18.10;55.80;;;;;;5014620;28;20029;-91
2022/04/19 10:42:36;;;;;;;7.00;2.47;;;18.00;55.40;;;;;;5020100;28;20132;-91
2022/04/19 10:45:14;;;;;;;5.55;2.20;;;18.00;55.20;;;;;;5022053;28;20025;-90
2022/04/19 10:48:03;;;;;;;9.25;2.75;;;18.10;55.20;;;;;;5019964;28;20481;-90
2022/04/19 10:50:39;;;;;;;5.57;2.42;;;18.20;55.00;;;;;;5021099;28;20029;-89
2022/04/19 10:53:12;;;;;;;12.68;3.58;;;18.20;54.70;;;;;;5021844;28;20030;-91
2022/04/19 10:55:57;;;;;;;5.95;2.78;;;18.20;54.20;;;;;;5014044;28;20033;-90
2022/04/19 10:58:38;;;;;;;8.02;3.28;;;18.30;54.60;;;;;;5020224;28;20485;-92
2022/04/19 11:01:05;;;;;;;9.95;3.72;;;18.40;54.80;;;;;;5019869;28;20091;-91
2022/04/19 11:03:34;;;;;;;7.63;3.75;;;18.40;53.90;;;;;;5020272;28;20067;-91
2022/04/19 11:06:03;;;;;;;10.10;3.50;;;18.40;54.30;;;;;;5018422;28;20590;-91
2022/04/19 11:08:31;;;;;;;9.32;3.40;;;18.30;54.30;;;;;;5023525;28;20117;-91
2022/04/19 11:11:04;;;;;;;5.88;2.50;;;18.30;54.90;;;;;;5019351;28;20025;-93
2022/04/19 11:13:40;;;;;;;6.22;3.15;;;18.30;54.70;;;;;;5020270;28;20489;-90
2022/04/19 11:16:05;;;;;;;6.18;3.17;;;18.40;54.90;;;;;;5026769;28;20025;-91
2022/04/19 11:18:40;;;;;;;8.98;3.40;;;18.40;54.30;;;;;;5018695;28;20048;-90
2022/04/19 11:21:13;;;;;;;8.40;3.88;;;18.40;54.20;;;;;;5016181;28;20038;-91
2022/04/19 11:23:44;;;;;;;6.53;2.72;;;18.40;53.90;;;;;;5000265;28;20057;-90
2022/04/19 11:26:24;;;;;;;8.07;3.20;;;18.40;55.10;;;;;;5011334;28;20021;-90
2022/04/19 11:29:18;;;;;;;6.00;2.75;;;18.50;54.90;;;;;;5015459;28;20033;-92
2022/04/19 11:31:43;;;;;;;6.57;2.95;;;18.70;54.60;;;;;;5008205;28;20101;-92
2022/04/19 11:34:13;;;;;;;7.90;3.45;;;18.70;53.80;;;;;;5010967;28;20065;-92
2022/04/19 11:36:38;;;;;;;6.45;2.97;;;18.70;53.60;;;;;;5013438;28;20022;-91
2022/04/19 11:39:04;;;;;;;8.27;3.40;;;18.70;53.00;;;;;;5009764;28;20033;-91
2022/04/19 11:47:01;;;;;;;14.85;5.63;;;18.50;53.80;;;;;;5034116;28;20410;-91
2022/04/19 11:49:29;;;;;;;7.55;3.65;;;18.60;53.70;;;;;;5020702;28;20030;-91
2022/04/19 11:52:00;;;;;;;8.25;3.00;;;18.60;53.50;;;;;;5005604;28;20120;-93
2022/04/19 11:54:27;;;;;;;7.72;3.17;;;18.60;53.90;;;;;;5020096;28;20073;-91
2022/04/19 11:57:03;;;;;;;8.38;3.75;;;18.60;53.10;;;;;;5013264;28;20049;-91
2022/04/19 11:59:33;;;;;;;7.45;2.72;;;18.70;53.00;;;;;;5008915;28;20029;-91
2022/04/19 12:02:00;;;;;;;8.75;3.40;;;18.70;53.00;;;;;;5018956;28;20037;-91
2022/04/19 12:04:26;;;;;;;10.35;4.15;;;18.80;52.40;;;;;;5005799;28;20042;-91
2022/04/19 12:06:53;;;;;;;11.63;4.03;;;18.70;52.80;;;;;;5015498;28;20032;-91
2022/04/19 12:09:20;;;;;;;7.45;3.45;;;18.70;53.00;;;;;;5018855;28;20477;-91
2022/04/19 12:11:48;;;;;;;7.18;3.38;;;18.70;52.70;;;;;;5034921;28;20049;-91
2022/04/19 12:14:27;;;;;;;8.70;3.58;;;18.80;53.00;;;;;;5029705;28;20478;-90
2022/04/19 12:17:05;;;;;;;11.32;4.03;;;18.80;53.40;;;;;;5005354;28;20030;-86
2022/04/19 12:19:39;;;;;;;10.52;4.03;;;18.90;52.90;;;;;;5011125;28;20044;-87
2022/04/19 12:22:24;;;;;;;9.40;3.55;;;18.90;53.10;;;;;;5008304;28;20034;-88
2022/04/19 12:24:55;;;;;;;7.93;3.38;;;19.00;53.70;;;;;;4998185;28;20029;-89
2022/04/19 12:27:25;;;;;;;8.38;3.83;;;19.10;54.20;;;;;;5024449;28;20120;-89
2022/04/19 12:30:14;;;;;;;6.95;3.28;;;19.20;53.30;;;;;;5006055;28;20490;-88
2022/04/19 12:32:57;;;;;;;7.50;3.50;;;19.30;53.70;;;;;;5014668;28;20033;-88
2022/04/19 12:35:34;;;;;;;8.48;2.97;;;19.30;52.60;;;;;;5014221;28;20060;-88
2022/04/19 12:38:10;;;;;;;6.50;3.13;;;19.40;52.70;;;;;;5021076;28;20030;-88
2022/04/19 12:40:37;;;;;;;9.30;4.03;;;19.40;53.00;;;;;;5018889;28;20053;-86
2022/04/19 12:43:03;;;;;;;9.35;4.50;;;19.50;53.20;;;;;;5023751;28;20061;-87
2022/04/19 12:45:35;;;;;;;7.63;3.45;;;19.60;53.40;;;;;;5016881;28;20482;-87
2022/04/19 12:48:02;;;;;;;;;;;19.80;53.00;;;;;;5012984;28;20033;-87
2022/04/19 12:50:28;;;;;;;5.50;2.63;;;19.80;52.20;;;;;;5015927;28;19905;-87
2022/04/19 12:52:53;;;;;;;6.97;3.05;;;19.80;52.40;;;;;;5010694;28;20025;-86
2022/04/19 12:55:31;;;;;;;5.07;2.53;;;19.80;52.30;;;;;;5003301;28;20028;-87
2022/04/19 12:58:09;;;;;;;5.88;2.53;;;19.80;52.70;;;;;;5007183;28;20021;-86
2022/04/19 13:00:36;;;;;;;6.15;3.10;;;19.90;52.30;;;;;;4998426;28;20702;-88
2022/04/19 13:03:02;;;;;;;7.38;2.78;;;19.90;51.70;;;;;;5006735;28;20036;-88
2022/04/19 13:12:16;;;;;;;4.93;2.38;;;19.90;50.90;;;;;;5013863;28;20563;-88
2022/04/19 13:13:42;;;;;;;8.68;2.70;;;19.80;50.90;;;;;;5033368;28;20036;-88
2022/04/19 13:16:09;;;;;;;5.07;2.63;;;19.80;51.00;;;;;;5016501;28;20018;-88
2022/04/19 13:18:34;;;;;;;6.57;3.03;;;19.80;51.10;;;;;;5016829;28;20029;-88
2022/04/19 13:21:00;;;;;;;5.25;2.50;;;19.70;51.10;;;;;;5016410;28;20033;-88
2022/04/19 13:23:25;;;;;;;6.70;2.63;;;19.60;51.80;;;;;;5010985;28;20026;-88
2022/04/19 13:25:52;;;;;;;7.70;3.08;;;19.70;51.90;;;;;;5016239;28;20496;-87
2022/04/19 13:28:18;;;;;;;6.75;2.55;;;19.80;51.70;;;;;;5014282;28;20584;-88
2022/04/19 13:30:44;;;;;;;5.30;2.45;;;19.80;51.80;;;;;;5006792;28;20018;-88